Terminal Aerodrome Forecast
Issued by NWS Cleveland, OH

Home | Current Version | Previous Version | Text Only | Print | Product List | Glossary On
Versions: 1 2 3 4 5 6 7 8 9 10 11 12 13 14 15 16 17 18 19 20 21 22
569
FTUS41 KCLE 270321 AAB
TAFTOL
TAF AMD
KTOL 270321Z 2703/2724 14006KT 6SM -SHRA BKN045 OVC100
     FM270400 23005KT P6SM SCT008 BKN050
     FM270700 24005KT 5SM BR OVC015
     FM271500 24008KT P6SM BKN025
     FM271900 23006KT P6SM BKN050 OVC100=

USA.gov is the U.S. government's official web portal to all federal, state and local government web resources and services.